• Join FlightAware (Why Join?)
  • Login
  • US Flag 
10:14AM EST


 

Airport Tracker/Info


-or-


 

Live Flight TrackerFlight Track Log ✈ N6502A ✈ 09-Feb-2014 ✈ KPGD - KLNS

Flight Track Log - Related Links

Times and Time Zones

All times are in EST time to prevent confusion due to time zone crossing. See the N6502A flight status page for this flight to view local times or setup timezone preferences in your user account.

Time Position Orientation Groundspeed Altitude Reporting Facility
EST Latitude Longitude Course Direction KTS MPH feet Rate Location/Type
07:31AM 27.0481 -81.9522 352° North 143 165 2,500  Level Miami Center
07:32AM 27.0856 -81.9536 358° North 143 165 3,200 660 Climbing Miami Center
07:33AM 27.1250 -81.9556 357° North 143 165 3,900 720 Climbing Miami Center
07:34AM 27.2120 -81.8960 17° North  Level FlightAware Approximate
07:34AM 27.1625 -81.9572 358° North 143 165 4,700  Level Miami Center
07:35AM 27.2619 -81.8852 352° North  Level FlightAware Approximate
07:35AM 27.2000 -81.9611 355° North 143 165 5,300  Level Miami Center
07:36AM 27.2397 -81.9628 358° North 143 165 5,900 600 Climbing Miami Center
07:37AM 27.2792 -81.9669 355° North 143 165 6,600 600 Climbing Miami Center
07:38AM 27.3186 -81.9686 358° North 143 165 7,100 360 Climbing Miami Center
07:39AM 27.3603 -81.9728 355° North 143 165 7,400  Climbing Miami Center
07:40AM 27.4108 -81.9633 North 148 170 7,100 -240 Descending Miami Center
07:41AM 27.4633 -81.9542 North 171 197 7,000  Descending Miami Center
07:42AM 27.5131 -81.9608 353° North 183 211 7,100 240 Climbing Miami Center
07:43AM 27.5589 -81.9653 355° North 170 196 7,500 420 Climbing Miami Center
07:44AM 27.6086 -81.9722 353° North 159 183 8,000 240 Climbing Miami Center
07:45AM 27.6544 -81.9767 355° North 159 183 8,000  Level Miami Center
07:46AM 27.7042 -81.9836 353° North 164 189 8,000  Level Miami Center
07:47AM 27.7500 -81.9881 355° North 171 197 8,000  Level Miami Center
07:48AM 27.8000 -81.9925 356° North 178 205 8,000  Level Miami Center
07:49AM 27.8539 -81.9997 353° North 178 205 8,000  Level Miami Center
07:50AM 27.9039 -82.0067 353° North 178 205 8,000  Level Miami Center
07:51AM 27.9517 -82.0111 355° North 178 205 8,000  Level Miami Center
07:51AM 27.9833 -82.0167 351° North 173 199 8,000  Level Tampa TRACON
07:52AM 28.0333 -82.0000 16° North 192 221 8,000  Level Tampa TRACON
07:53AM 28.0667 -81.9833 24° Northeast 190 219 8,000  Level Tampa TRACON
07:54AM 28.1167 -81.9833 360° North 168 193 8,000  Level Tampa TRACON
07:55AM 28.1667 -82.0000 344° North 171 197 8,000  Level Tampa TRACON
07:56AM 28.2167 -82.0000 360° North 169 194 8,000 -60 Level Tampa TRACON
07:57AM 28.2500 -82.0167 336° Northwest 168 193 7,900 -60 Descending Tampa TRACON
07:58AM 28.3167 -82.0167 360° North 171 197 7,900  Level Tampa TRACON
07:59AM 28.3500 -82.0333 336° Northwest 173 199 8,000  Climbing Tampa TRACON
08:00AM 28.4000 -82.0500 344° North 175 201 8,000  Level Tampa TRACON
08:01AM 28.4500 -82.0500 360° North 176 203 8,000 -120 Level Tampa TRACON
08:02AM 28.4789 -82.0567 349° North 176 203 7,900 -120 Descending Jacksonville Center
08:02AM 28.5019 -82.0633 346° North 176 203 7,900 60 Level Jacksonville Center
08:03AM 28.5583 -82.0747 350° North 176 203 8,000  Climbing Jacksonville Center
08:04AM 28.6044 -82.0814 353° North 176 203 8,000  Level Jacksonville Center
08:05AM 28.6525 -82.0883 353° North 174 200 8,000  Level Jacksonville Center
08:06AM 28.7025 -82.0972 351° North 175 201 8,000  Level Jacksonville Center
08:07AM 28.7528 -82.1064 351° North 179 206 8,000  Level Jacksonville Center
08:08AM 28.8028 -82.1178 349° North 178 205 8,000  Level Jacksonville Center
08:09AM 28.8550 -82.0867 28° Northeast 205 236 8,000  Level Jacksonville Center
08:10AM 28.9069 -82.0625 22° Northeast 198 228 8,000  Level Jacksonville Center
08:11AM 28.9569 -82.0453 17° North 194 223 8,000  Level Jacksonville Center
08:12AM 29.0069 -82.0261 19° North 195 224 8,000  Level Jacksonville Center
08:13AM 29.0589 -82.0042 20° North 196 226 8,000  Level Jacksonville Center
08:14AM 29.1089 -81.9894 14° North 190 219 8,000  Level Jacksonville Center
08:15AM 29.1650 -81.9769 11° North 187 215 8,000  Level Jacksonville Center
08:16AM 29.2150 -81.9600 16° North 190 219 8,000  Level Jacksonville Center
08:17AM 29.2650 -81.9475 12° North 188 216 8,000  Level Jacksonville Center
08:18AM 29.3172 -81.9303 16° North 187 215 8,000  Level Jacksonville Center
08:19AM 29.3672 -81.9203 10° North 189 217 8,000  Level Jacksonville Center
08:20AM 29.4192 -81.9031 16° North 186 214 8,000  Level Jacksonville Center
08:21AM 29.4631 -81.8908 14° North 183 211 8,000  Level Jacksonville Center
08:22AM 29.5172 -81.8758 14° North 183 211 8,000  Level Jacksonville Center
08:23AM 29.5672 -81.8633 12° North 183 211 8,100 240 Climbing Jacksonville Center
08:24AM 29.6131 -81.8511 13° North 168 193 8,500 360 Climbing Jacksonville Center
08:25AM 29.6589 -81.8386 13° North 163 188 8,900 240 Climbing Jacksonville Center
08:26AM 29.7025 -81.8261 14° North 175 201 9,000  Climbing Jacksonville Center
08:27AM 29.7506 -81.8136 13° North 186 214 9,000 -60 Level Jacksonville Center
08:28AM 29.8006 -81.7986 15° North 187 215 8,900  Descending Jacksonville Center
08:29AM 29.8547 -81.7839 13° North 186 214 9,000  Climbing Jacksonville Center
08:30AM 29.9044 -81.7689 15° North 187 215 9,000  Level Jacksonville Center
08:31AM 29.9544 -81.7586 10° North 186 214 9,000 -60 Level Jacksonville Center
08:33AM 30.0108 -81.7436 13° North 184 212 8,900  Descending Jacksonville Center
08:33AM 30.0567 -81.7286 16° North 184 212 9,000  Climbing Jacksonville Center
08:34AM 30.1044 -81.7161 13° North 183 211 9,000  Level Jacksonville Center
08:35AM 30.1567 -81.7011 14° North 183 211 9,000  Level Jacksonville Center
08:36AM 30.2086 -81.6858 14° North 184 212 9,000  Level Jacksonville Center
08:37AM 30.2586 -81.6708 15° North 184 212 9,000  Level Jacksonville Center
08:38AM 30.3086 -81.6583 12° North 184 212 9,000  Level Jacksonville Center
08:39AM 30.3564 -81.6456 13° North 185 213 9,000  Level Jacksonville Center
08:40AM 30.4064 -81.6306 15° North 185 213 9,000  Level Jacksonville Center
08:42AM 30.4606 -81.6153 14° North 185 213 9,000  Level Jacksonville Center
08:43AM 30.5106 -81.6003 14° North 182 209 9,000  Level Jacksonville Center
08:44AM 30.5583 -81.5875 13° North 181 208 9,000  Level Jacksonville Center
08:44AM 30.5875 -81.5775 16° North 181 208 9,000  Level Jacksonville Center
08:45AM 30.6147 -81.5697 14° North 180 207 9,000  Level Jacksonville Center
08:45AM 30.6356 -81.5647 12° North 181 208 9,000  Level Jacksonville Center
08:46AM 30.6833 -81.5519 13° North 188 216 9,000  Level Jacksonville Center
08:47AM 30.7311 -81.5367 15° North 182 209 9,000  Level Jacksonville Center
08:48AM 30.7792 -81.5239 13° North 182 209 9,000  Level Jacksonville Center
08:49AM 30.8269 -81.5111 13° North 177 204 9,000 -60 Level Jacksonville Center
08:50AM 30.8769 -81.4958 15° North 177 204 8,900 -60 Descending Jacksonville Center
08:51AM 30.9228 -81.4831 13° North 177 204 8,900  Level Jacksonville Center
08:52AM 30.9706 -81.4703 13° North 177 204 8,900  Level Jacksonville Center
08:53AM 31.0183 -81.4550 15° North 177 204 9,000  Climbing Jacksonville Center
08:54AM 31.0661 -81.4375 17° North 177 204 8,900 -60 Descending Jacksonville Center
08:55AM 31.1119 -81.4075 29° Northeast 184 212 8,900  Level Jacksonville Center
08:56AM 31.1575 -81.3778 29° Northeast 184 212 8,900  Level Jacksonville Center
08:57AM 31.1967 -81.3528 29° Northeast 179 206 8,900  Level Jacksonville Center
08:58AM 31.2425 -81.3253 27° Northeast 179 206 8,900  Level Jacksonville Center
08:59AM 31.2919 -81.2928 29° Northeast 179 206 8,900  Level Jacksonville Center
09:00AM 31.3375 -81.2628 29° Northeast 179 206 8,900  Level Jacksonville Center
09:01AM 31.3833 -81.2378 25° Northeast 179 206 8,900  Level Jacksonville Center
09:02AM 31.4225 -81.2103 31° Northeast 179 206 8,900  Level Jacksonville Center
09:03AM 31.4661 -81.1828 28° Northeast 179 206 8,900  Level Jacksonville Center
09:04AM 31.5178 -81.1500 28° Northeast 179 206 8,900  Level Jacksonville Center
09:05AM 31.5653 -81.1200 28° Northeast 179 206 8,900  Level Jacksonville Center
09:06AM 31.6047 -81.0947 29° Northeast 179 206 8,900  Level Jacksonville Center
09:07AM 31.6503 -81.0669 27° Northeast 179 206 8,900  Level Jacksonville Center
09:08AM 31.6997 -81.0344 29° Northeast 179 206 8,900  Level Jacksonville Center
09:10AM 31.7632 -80.9916 30° Northeast  Level FlightAware Approximate
09:17AM 32.0729 -80.7814 30° Northeast  Level FlightAware Approximate
09:18AM 32.1171 -80.7513 30° Northeast  Level FlightAware Approximate
09:19AM 32.1613 -80.7212 30° Northeast  Level FlightAware Approximate
09:20AM 32.2055 -80.6909 30° Northeast  Level FlightAware Approximate
09:21AM 32.2502 -80.6616 29° Northeast  Level FlightAware Approximate
09:22AM 32.2949 -80.6325 29° Northeast  Level FlightAware Approximate
09:23AM 32.3397 -80.6034 29° Northeast  Level FlightAware Approximate
09:24AM 32.3844 -80.5742 29° Northeast  Level FlightAware Approximate
09:25AM 32.4291 -80.5451 29° Northeast  Level FlightAware Approximate
09:26AM 32.4739 -80.5159 29° Northeast  Level FlightAware Approximate
09:27AM 32.5186 -80.4866 29° Northeast  Level FlightAware Approximate
09:28AM 32.5633 -80.4574 29° Northeast  Level FlightAware Approximate
09:29AM 32.6080 -80.4281 29° Northeast  Level FlightAware Approximate
09:30AM 32.6526 -80.3986 29° Northeast  Level FlightAware Approximate
09:31AM 32.6972 -80.3691 29° Northeast  Level FlightAware Approximate
09:32AM 32.7418 -80.3396 29° Northeast  Level FlightAware Approximate
09:33AM 32.7864 -80.3101 29° Northeast  Level FlightAware Approximate
09:34AM 32.8310 -80.2805 29° Northeast  Level FlightAware Approximate
09:35AM 32.8756 -80.2509 29° Northeast  Level FlightAware Approximate
09:36AM 32.9202 -80.2212 29° Northeast  Level FlightAware Approximate
09:37AM 32.9647 -80.1916 29° Northeast  Level FlightAware Approximate
09:38AM 33.0093 -80.1619 29° Northeast  Level FlightAware Approximate
09:39AM 33.0539 -80.1321 29° Northeast  Level FlightAware Approximate
09:40AM 33.0984 -80.1024 29° Northeast  Level FlightAware Approximate
09:41AM 33.1430 -80.0726 29° Northeast  Level FlightAware Approximate
09:42AM 33.1875 -80.0428 29° Northeast  Level FlightAware Approximate
09:43AM 33.2320 -80.0129 29° Northeast  Level FlightAware Approximate
09:44AM 33.2766 -79.9830 29° Northeast  Level FlightAware Approximate
09:45AM 33.3211 -79.9531 29° Northeast  Level FlightAware Approximate
09:46AM 33.3656 -79.9232 29° Northeast  Level FlightAware Approximate
09:47AM 33.4101 -79.8932 29° Northeast  Level FlightAware Approximate
09:48AM 33.4546 -79.8631 29° Northeast  Level FlightAware Approximate
09:49AM 33.4990 -79.8330 29° Northeast  Level FlightAware Approximate
09:50AM 33.5434 -79.8028 29° Northeast  Level FlightAware Approximate
09:51AM 33.5879 -79.7726 29° Northeast  Level FlightAware Approximate
09:52AM 33.6323 -79.7424 30° Northeast  Level FlightAware Approximate
09:53AM 33.6767 -79.7122 30° Northeast  Level FlightAware Approximate
09:54AM 33.7211 -79.6819 30° Northeast  Level FlightAware Approximate
09:55AM 33.7655 -79.6516 30° Northeast  Level FlightAware Approximate
09:56AM 33.8099 -79.6213 30° Northeast  Level FlightAware Approximate
09:57AM 33.8546 -79.5916 29° Northeast  Level FlightAware Approximate
09:58AM 33.8994 -79.5619 29° Northeast  Level FlightAware Approximate
09:59AM 33.9444 -79.5321 29° Northeast  Level FlightAware Approximate
10:00AM 33.9894 -79.5022 29° Northeast  Level FlightAware Approximate
10:01AM 34.0344 -79.4723 29° Northeast  Level FlightAware Approximate
10:02AM 34.0794 -79.4423 29° Northeast  Level FlightAware Approximate
10:03AM 34.1244 -79.4123 29° Northeast  Level FlightAware Approximate
10:04AM 34.1694 -79.3823 29° Northeast  Level FlightAware Approximate
10:05AM 34.2144 -79.3522 29° Northeast  Level FlightAware Approximate
10:06AM 34.2594 -79.3222 29° Northeast  Level FlightAware Approximate
10:07AM 34.3044 -79.2920 29° Northeast  Level FlightAware Approximate
10:08AM 34.3493 -79.2619 29° Northeast  Level FlightAware Approximate
10:09AM 34.3943 -79.2317 29° Northeast  Level FlightAware Approximate
10:10AM 34.4390 -79.2010 30° Northeast  Level FlightAware Approximate
10:11AM 34.4834 -79.1696 30° Northeast  Level FlightAware Approximate
10:12AM 34.5278 -79.1382 30° Northeast  Level FlightAware Approximate
10:13AM 34.5722 -79.1068 30° Northeast  Level FlightAware Approximate
10:14AM 34.6166 -79.0753 30° Northeast  Level FlightAware Approximate
10:15AM 34.6610 -79.0439 30° Northeast  Level FlightAware Approximate
10:16AM 34.7054 -79.0123 30° Northeast  Level FlightAware Approximate
10:17AM 34.7497 -78.9808 30° Northeast  Level FlightAware Approximate
10:18AM 34.7941 -78.9492 30° Northeast  Level FlightAware Approximate
10:19AM 34.8385 -78.9176 30° Northeast  Level FlightAware Approximate
10:20AM 34.8828 -78.8859 30° Northeast  Level FlightAware Approximate
10:21AM 34.9272 -78.8542 30° Northeast  Level FlightAware Approximate
10:22AM 34.9715 -78.8225 30° Northeast  Level FlightAware Approximate
10:23AM 35.0158 -78.7908 30° Northeast  Level FlightAware Approximate
10:24AM 35.0601 -78.7590 30° Northeast  Level FlightAware Approximate
10:24AM 35.1492 -78.7189 31° Northeast 192 221 9,900  Level Washington Center
10:25AM 35.1044 -78.7271 30° Northeast  Level FlightAware Approximate
10:25AM 35.2003 -78.6828 30° Northeast 194 223 9,900  Level Washington Center
10:26AM 35.1487 -78.6953 30° Northeast  Level FlightAware Approximate
10:26AM 35.2469 -78.6517 29° Northeast 195 224 9,900  Level Washington Center
10:28AM 35.3128 -78.6006 33° Northeast 194 223 9,900  Level Washington Center
10:28AM 35.3425 -78.5789 31° Northeast 195 224 9,900  Level Washington Center
10:29AM 35.2816 -78.5995 31° Northeast  Level FlightAware Approximate
10:29AM 35.3892 -78.5500 27° Northeast 199 229 9,900  Level Washington Center
10:30AM 35.3258 -78.5675 31° Northeast  Level FlightAware Approximate
10:30AM 35.4339 -78.5133 34° Northeast 198 228 10,000  Level Washington Center
10:31AM 35.4828 -78.4819 28° Northeast 199 229 10,000  Level Washington Center
10:32AM 35.5317 -78.4456 31° Northeast 202 232 10,000  Level Washington Center
10:33AM 35.5444 -78.4358 32° Northeast 198 228 10,000  Level Washington Center
10:35AM 35.6333 -78.3750 29° Northeast 219 252 10,100  Climbing Washington Center
10:36AM 35.6844 -78.3386 30° Northeast 215 247 10,100 -60 Level Washington Center
10:37AM 35.7331 -78.3017 32° Northeast 209 241 10,000 -60 Descending Washington Center
10:38AM 35.7819 -78.2675 30° Northeast 203 234 10,000  Level Washington Center
10:39AM 35.8286 -78.2358 29° Northeast 198 228 10,000  Level Washington Center
10:40AM 35.8753 -78.2014 31° Northeast 198 228 10,000  Level Washington Center
10:41AM 35.9178 -78.1669 33° Northeast 189 217 10,000  Level Washington Center
10:42AM 35.9664 -78.1353 28° Northeast 189 217 10,000  Level Washington Center
10:45AM 36.1103 -78.0319 33° Northeast 189 217 10,000 -60 Level Washington Center
10:46AM 36.1569 -77.9972 31° Northeast 189 217 9,900 -60 Descending Washington Center
10:47AM 36.2036 -77.9653 29° Northeast 189 217 9,900  Level Washington Center
10:49AM 36.2967 -77.8958 31° Northeast 189 217 9,900  Level Washington Center
10:50AM 36.3433 -77.8611 31° Northeast 189 217 9,900  Level Washington Center
10:51AM 36.3919 -77.8292 28° Northeast 189 217 9,900  Level Washington Center
10:52AM 36.4342 -77.7942 34° Northeast 189 217 9,900  Level Washington Center
10:53AM 36.4808 -77.7592 31° Northeast 189 217 9,900  Level Washington Center
10:54AM 36.5294 -77.7244 30° Northeast 189 217 9,900  Level Washington Center
10:55AM 36.5758 -77.6894 31° Northeast 189 217 9,900  Level Washington Center
10:57AM 36.6731 -77.6169 31° Northeast 189 217 9,900  Level Washington Center
10:58AM 36.7194 -77.5819 31° Northeast 189 217 10,000  Climbing Washington Center
10:59AM 36.7681 -77.5469 30° Northeast 189 217 10,000 -60 Level Washington Center
11:01AM 36.8672 -77.4767 31° Northeast 189 217 9,900 -60 Descending Washington Center
11:02AM 36.9139 -77.4389 33° Northeast 189 217 9,900  Level Washington Center
11:03AM 36.9622 -77.4064 28° Northeast 189 217 9,900  Level Washington Center
11:04AM 37.0108 -77.3683 32° Northeast 189 217 9,900  Level Washington Center
11:05AM 37.0594 -77.3331 30° Northeast 189 217 9,900  Level Washington Center
11:06AM 37.1078 -77.2950 32° Northeast 189 217 9,900  Level Washington Center
11:07AM 37.1564 -77.2597 30° Northeast 189 217 9,900  Level Washington Center
11:08AM 37.2047 -77.2242 30° Northeast 189 217 9,900  Level Washington Center
11:09AM 37.2533 -77.1886 30° Northeast 189 217 9,900  Level Washington Center
11:10AM 37.3058 -77.1506 30° Northeast 189 217 9,900  Level Washington Center
11:11AM 37.3544 -77.1150 30° Northeast 194 223 9,900  Level Washington Center
11:12AM 37.4028 -77.0767 32° Northeast 199 229 9,900  Level Washington Center
11:13AM 37.4533 -77.0386 31° Northeast 204 235 9,900  Level Washington Center
11:14AM 37.4997 -77.0028 31° Northeast 204 235 9,900  Level Washington Center
11:15AM 37.5522 -76.9619 32° Northeast 204 235 9,900  Level Washington Center
11:16AM 37.6006 -76.9261 30° Northeast 204 235 9,900  Level Washington Center
11:17AM 37.6489 -76.8875 32° Northeast 204 235 9,900  Level Washington Center
11:18AM 37.6972 -76.8517 30° Northeast 204 235 10,000  Climbing Washington Center
11:20AM 37.7919 -76.7794 31° Northeast 204 235 10,000  Level Washington Center
11:21AM 37.8403 -76.7436 30° Northeast 204 235 10,000  Level Washington Center
11:22AM 37.8864 -76.7075 32° Northeast 199 229 10,000  Level Washington Center
11:23AM 37.9328 -76.6711 32° Northeast 193 222 10,000  Level Washington Center
11:24AM 37.9811 -76.6350 30° Northeast 193 222 10,000  Level Washington Center
11:25AM 38.0272 -76.5986 32° Northeast 193 222 10,000  Level Washington Center
11:26AM 38.0756 -76.5625 30° Northeast 193 222 10,000  Level Washington Center
11:28AM 38.1656 -76.4922 32° Northeast 193 222 10,000  Level Washington Center
11:29AM 38.2117 -76.4558 32° Northeast 193 222 10,000 -60 Level Washington Center
11:31AM 38.3061 -76.3908 28° Northeast 186 214 9,900  Descending Washington Center
11:32AM 38.3625 -76.3808 North 186 214 10,000  Climbing Washington Center
11:33AM 38.4125 -76.3628 16° North 186 214 10,000  Level Washington Center
11:34AM 38.4647 -76.3500 11° North 186 214 10,000  Level Washington Center
11:35AM 38.5150 -76.3347 13° North 186 214 10,000  Level Washington Center
11:36AM 38.5650 -76.3192 14° North 186 214 10,000  Level Washington Center
11:37AM 38.6172 -76.3039 13° North 186 214 10,000  Level Washington Center
11:38AM 38.6672 -76.3122 353° North 181 208 10,000  Level Washington Center
11:39AM 38.7581 -76.3053 North 182 209 10,000  Level New York Center
11:41AM 38.8217 -76.3083 358° North 176 203 10,000  Level Washington Center
11:42AM 38.9167 -76.3000 North 183 211 10,000 -60 Level Potomac TRACON
11:44AM 38.9758 -76.3072 355° North 176 203 9,900 -60 Descending Washington Center
11:45AM 39.0667 -76.3000 North 187 215 9,900 -180 Level Potomac TRACON
11:46AM 39.1333 -76.3000 360° North 199 229 9,500 -480 Descending Potomac TRACON
11:47AM 39.1667 -76.3000 360° North 200 230 9,100 -300 Descending Potomac TRACON
11:48AM 39.2333 -76.3000 360° North 199 229 9,000 -60 Descending Potomac TRACON
11:49AM 39.2833 -76.3000 360° North 188 216 9,000  Level Potomac TRACON
11:50AM 39.3333 -76.3000 360° North 186 214 9,000 -120 Level Potomac TRACON
11:51AM 39.3833 -76.3000 360° North 186 214 8,800 -480 Descending Potomac TRACON
11:53AM 39.4706 -76.2994 360° North 199 229 7,800 -660 Descending New York Center
11:54AM 39.5319 -76.2994 360° North 203 234 7,100 -720 Descending New York Center
11:55AM 39.5858 -76.2992 360° North 199 229 6,400 -720 Descending New York Center
11:56AM 39.6364 -76.2983 North 183 211 5,700 -840 Descending New York Center
11:57AM 39.6883 -76.2989 360° North 179 206 4,700 -900 Descending New York Center
11:58AM 39.7394 -76.2981 North 180 207 3,900 -780 Descending New York Center
11:59AM 39.7872 -76.2983 360° North 178 205 3,200 -480 Descending New York Center
12:00PM 39.8358 -76.2969 North 165 190 3,000 -120 Descending New York Center
12:01PM 39.8794 -76.2978 359° North 158 182 3,000  Level New York Center
12:02PM 39.9253 -76.2967 North 158 182 3,000 -60 Level New York Center
12:03PM 39.9708 -76.2953 North 158 182 2,900 -300 Descending New York Center
12:04PM 40.0147 -76.2967 359° North 158 182 2,400 -420 Descending New York Center
12:05PM 40.0586 -76.2956 North 157 181 2,100 -300 Descending New York Center
12:07PM 40.1167 -76.2833 North  Level FlightAware Approximate
12:14PM 40.1224 -76.2944 North  Level Estimated
12:15PM 40.1224 -76.2944 North  Level Estimated
12:16PM 40.1224 -76.2944 North  Level Estimated
12:17PM 40.1224 -76.2944 North  Level Estimated